CheckWX is a tool to help pilots better visualize weather data.  It is not intended as a substitute for an official pre-flight weather briefing.

20:50:11 UTC

KLUK METAR
Cincinnati Municipal Lunken Field Airport
Cincinnati, Ohio, USA
Current

57 mins ago

KLUK 161953Z 21014KT 10SM FEW050 SCT100 30/21 A2997 RMK AO2 PK WND 20026/1929 LTG DSNT N SLP145 T03000211
Observed
Jul-16 @ 19:53 UTC
Wind
  • 210° at 14 KTS
Visibility
10 SM
Flight Rules
VFR
Cloud Levels
  • Few at 5,000' AGL
  • Scattered at 10,000' AGL
Temperature
30°C / 86°F
Dewpoint
21°C / 70°F
Heat Index
33°C / 91°F
Humidity
59%
Altimeter
29.97" Hg
Pressure
1014.92 hPa
Previous

2 hours ago

KLUK 161853Z 19016G21KT 10SM SCT050 SCT060 BKN085 31/22 A2999 RMK AO2 SLP151 T03060217
Observed
Jul-16 @ 18:53 UTC
Wind
  • 190° at 16 KTS
  • Gusting to 21 KTS
Visibility
10 SM
Flight Rules
VFR
Cloud Levels
  • Scattered at 5,000' AGL
  • Scattered at 6,000' AGL
  • Broken at 8,500' AGL
Temperature
31°C / 88°F
Dewpoint
22°C / 72°F
Heat Index
35°C / 95°F
Humidity
59%
Altimeter
29.99" Hg
Pressure
1015.62 hPa
Previous

3 hours ago

KLUK 161753Z 20014G22KT 10SM SCT047 31/23 A3001 RMK AO2 SLP158 T03110228 10311 20233 58015
Observed
Jul-16 @ 17:53 UTC
Wind
  • 200° at 14 KTS
  • Gusting to 22 KTS
Visibility
10 SM
Flight Rules
VFR
Cloud Levels
  • Scattered at 4,700' AGL
Temperature
31°C / 88°F
Dewpoint
23°C / 73°F
Heat Index
36°C / 96°F
Humidity
62%
Altimeter
30.01" Hg
Pressure
1016.22 hPa